sensor_id;sensor_type;location;lat;lon;timestamp;temperature;humidity
37658;DHT22;23500;53.268;8.308;2023-05-13T00:01:14;18.80;70.60
37658;DHT22;23500;53.268;8.308;2023-05-13T00:03:39;18.80;70.80
37658;DHT22;23500;53.268;8.308;2023-05-13T00:06:05;18.80;71.00
37658;DHT22;23500;53.268;8.308;2023-05-13T00:08:31;18.70;70.90
37658;DHT22;23500;53.268;8.308;2023-05-13T00:10:56;18.70;70.70
37658;DHT22;23500;53.268;8.308;2023-05-13T00:13:22;18.70;70.90
37658;DHT22;23500;53.268;8.308;2023-05-13T00:15:48;18.70;70.90
37658;DHT22;23500;53.268;8.308;2023-05-13T00:18:13;18.70;71.00
37658;DHT22;23500;53.268;8.308;2023-05-13T00:20:39;18.70;70.90
37658;DHT22;23500;53.268;8.308;2023-05-13T00:23:06;18.70;70.80
37658;DHT22;23500;53.268;8.308;2023-05-13T00:25:32;18.70;71.00
37658;DHT22;23500;53.268;8.308;2023-05-13T00:27:58;18.70;71.10
37658;DHT22;23500;53.268;8.308;2023-05-13T00:30:24;18.60;70.90
37658;DHT22;23500;53.268;8.308;2023-05-13T00:32:49;18.60;71.00
37658;DHT22;23500;53.268;8.308;2023-05-13T00:35:16;18.60;70.90
37658;DHT22;23500;53.268;8.308;2023-05-13T00:37:42;18.60;71.00
37658;DHT22;23500;53.268;8.308;2023-05-13T00:40:16;18.60;71.10
37658;DHT22;23500;53.268;8.308;2023-05-13T00:42:43;18.60;71.30
37658;DHT22;23500;53.268;8.308;2023-05-13T00:45:09;18.60;71.20
37658;DHT22;23500;53.268;8.308;2023-05-13T00:47:35;18.60;71.30
37658;DHT22;23500;53.268;8.308;2023-05-13T00:50:01;18.60;71.30
37658;DHT22;23500;53.268;8.308;2023-05-13T00:52:27;18.60;71.20
37658;DHT22;23500;53.268;8.308;2023-05-13T00:54:53;18.60;72.00
37658;DHT22;23500;53.268;8.308;2023-05-13T00:57:20;18.60;71.10
37658;DHT22;23500;53.268;8.308;2023-05-13T00:59:45;18.50;71.20
37658;DHT22;23500;53.268;8.308;2023-05-13T01:02:19;18.50;71.20
37658;DHT22;23500;53.268;8.308;2023-05-13T01:07:42;18.50;71.60
37658;DHT22;23500;53.268;8.308;2023-05-13T01:13:11;18.50;71.90
37658;DHT22;23500;53.268;8.308;2023-05-13T01:15:49;18.50;71.70
37658;DHT22;23500;53.268;8.308;2023-05-13T01:18:25;18.50;71.90
37658;DHT22;23500;53.268;8.308;2023-05-13T01:20:53;18.50;71.90
37658;DHT22;23500;53.268;8.308;2023-05-13T01:23:19;18.50;71.70
37658;DHT22;23500;53.268;8.308;2023-05-13T01:25:44;18.50;71.90
37658;DHT22;23500;53.268;8.308;2023-05-13T01:28:11;18.40;71.70
37658;DHT22;23500;53.268;8.308;2023-05-13T01:30:37;18.40;71.70
37658;DHT22;23500;53.268;8.308;2023-05-13T01:33:03;18.40;71.80
37658;DHT22;23500;53.268;8.308;2023-05-13T01:35:30;18.40;71.70
37658;DHT22;23500;53.268;8.308;2023-05-13T01:37:56;18.40;71.80
37658;DHT22;23500;53.268;8.308;2023-05-13T01:40:22;18.40;71.80
37658;DHT22;23500;53.268;8.308;2023-05-13T01:42:49;18.40;71.80
37658;DHT22;23500;53.268;8.308;2023-05-13T01:45:14;18.40;71.80
37658;DHT22;23500;53.268;8.308;2023-05-13T01:47:40;18.40;72.60
37658;DHT22;23500;53.268;8.308;2023-05-13T01:50:06;18.40;71.80
37658;DHT22;23500;53.268;8.308;2023-05-13T01:52:32;18.40;72.00
37658;DHT22;23500;53.268;8.308;2023-05-13T01:54:58;18.40;72.10
37658;DHT22;23500;53.268;8.308;2023-05-13T01:57:24;18.40;71.80
37658;DHT22;23500;53.268;8.308;2023-05-13T01:59:50;18.30;71.90
37658;DHT22;23500;53.268;8.308;2023-05-13T02:02:17;18.30;71.90
37658;DHT22;23500;53.268;8.308;2023-05-13T02:04:43;18.30;71.90
37658;DHT22;23500;53.268;8.308;2023-05-13T02:07:08;18.30;72.10
37658;DHT22;23500;53.268;8.308;2023-05-13T02:09:34;18.40;72.00
37658;DHT22;23500;53.268;8.308;2023-05-13T02:12:00;18.30;71.90
37658;DHT22;23500;53.268;8.308;2023-05-13T02:14:25;18.30;71.90
37658;DHT22;23500;53.268;8.308;2023-05-13T02:16:51;18.30;72.10
37658;DHT22;23500;53.268;8.308;2023-05-13T02:19:17;18.30;72.10
37658;DHT22;23500;53.268;8.308;2023-05-13T02:21:44;18.30;72.10
37658;DHT22;23500;53.268;8.308;2023-05-13T02:24:09;18.30;72.20
37658;DHT22;23500;53.268;8.308;2023-05-13T02:26:35;18.30;72.20
37658;DHT22;23500;53.268;8.308;2023-05-13T02:29:01;18.30;72.00
37658;DHT22;23500;53.268;8.308;2023-05-13T02:31:27;18.30;72.00
37658;DHT22;23500;53.268;8.308;2023-05-13T02:33:52;18.30;72.10
37658;DHT22;23500;53.268;8.308;2023-05-13T02:36:18;18.30;72.10
37658;DHT22;23500;53.268;8.308;2023-05-13T02:38:44;18.20;71.80
37658;DHT22;23500;53.268;8.308;2023-05-13T02:41:10;18.20;72.10
37658;DHT22;23500;53.268;8.308;2023-05-13T02:43:35;18.30;72.10
37658;DHT22;23500;53.268;8.308;2023-05-13T02:46:01;18.20;72.20
37658;DHT22;23500;53.268;8.308;2023-05-13T02:48:28;18.20;72.10
37658;DHT22;23500;53.268;8.308;2023-05-13T02:50:53;18.20;72.20
37658;DHT22;23500;53.268;8.308;2023-05-13T02:53:19;18.20;72.30
37658;DHT22;23500;53.268;8.308;2023-05-13T02:55:45;18.20;72.20
37658;DHT22;23500;53.268;8.308;2023-05-13T02:58:11;18.20;72.40
37658;DHT22;23500;53.268;8.308;2023-05-13T03:00:37;18.20;72.50
37658;DHT22;23500;53.268;8.308;2023-05-13T03:03:02;18.20;72.40
37658;DHT22;23500;53.268;8.308;2023-05-13T03:05:28;18.20;72.50
37658;DHT22;23500;53.268;8.308;2023-05-13T03:07:54;18.10;72.40
37658;DHT22;23500;53.268;8.308;2023-05-13T03:10:19;18.10;72.40
37658;DHT22;23500;53.268;8.308;2023-05-13T03:12:45;18.10;72.30
37658;DHT22;23500;53.268;8.308;2023-05-13T03:15:11;18.10;72.50
37658;DHT22;23500;53.268;8.308;2023-05-13T03:17:37;18.10;72.40
37658;DHT22;23500;53.268;8.308;2023-05-13T03:20:03;18.10;72.50
37658;DHT22;23500;53.268;8.308;2023-05-13T03:22:28;18.10;72.60
37658;DHT22;23500;53.268;8.308;2023-05-13T03:24:54;18.10;72.50
37658;DHT22;23500;53.268;8.308;2023-05-13T03:27:20;18.10;72.40
37658;DHT22;23500;53.268;8.308;2023-05-13T03:29:45;18.10;72.60
37658;DHT22;23500;53.268;8.308;2023-05-13T03:32:11;18.10;72.60
37658;DHT22;23500;53.268;8.308;2023-05-13T03:34:37;18.10;72.60
37658;DHT22;23500;53.268;8.308;2023-05-13T03:37:02;18.10;72.70
37658;DHT22;23500;53.268;8.308;2023-05-13T03:39:28;18.10;72.60
37658;DHT22;23500;53.268;8.308;2023-05-13T03:41:54;18.10;72.50
37658;DHT22;23500;53.268;8.308;2023-05-13T03:44:20;18.10;72.50
37658;DHT22;23500;53.268;8.308;2023-05-13T03:46:45;18.10;72.60
37658;DHT22;23500;53.268;8.308;2023-05-13T03:49:11;18.10;72.60
37658;DHT22;23500;53.268;8.308;2023-05-13T03:51:37;18.10;72.60
37658;DHT22;23500;53.268;8.308;2023-05-13T03:54:02;18.10;72.50
37658;DHT22;23500;53.268;8.308;2023-05-13T03:56:28;18.10;72.30
37658;DHT22;23500;53.268;8.308;2023-05-13T03:58:54;18.10;72.30
37658;DHT22;23500;53.268;8.308;2023-05-13T04:01:20;18.10;72.30
37658;DHT22;23500;53.268;8.308;2023-05-13T04:03:46;18.10;72.20
37658;DHT22;23500;53.268;8.308;2023-05-13T04:06:12;18.20;72.30
37658;DHT22;23500;53.268;8.308;2023-05-13T04:08:39;18.20;72.10
37658;DHT22;23500;53.268;8.308;2023-05-13T04:11:05;18.20;72.00
37658;DHT22;23500;53.268;8.308;2023-05-13T04:13:33;18.20;72.00
37658;DHT22;23500;53.268;8.308;2023-05-13T04:16:00;18.20;72.10
37658;DHT22;23500;53.268;8.308;2023-05-13T04:18:25;18.20;72.00
37658;DHT22;23500;53.268;8.308;2023-05-13T04:20:51;18.20;71.90
37658;DHT22;23500;53.268;8.308;2023-05-13T04:23:16;18.30;71.90
37658;DHT22;23500;53.268;8.308;2023-05-13T04:25:42;18.40;71.40
37658;DHT22;23500;53.268;8.308;2023-05-13T04:28:08;18.60;70.80
37658;DHT22;23500;53.268;8.308;2023-05-13T04:30:34;18.80;69.80
37658;DHT22;23500;53.268;8.308;2023-05-13T04:33:00;19.00;70.10
37658;DHT22;23500;53.268;8.308;2023-05-13T04:35:26;19.30;70.20
37658;DHT22;23500;53.268;8.308;2023-05-13T04:37:52;19.40;70.00
37658;DHT22;23500;53.268;8.308;2023-05-13T04:40:17;19.60;68.30
37658;DHT22;23500;53.268;8.308;2023-05-13T04:42:43;19.80;66.80
37658;DHT22;23500;53.268;8.308;2023-05-13T04:45:09;20.00;66.00
37658;DHT22;23500;53.268;8.308;2023-05-13T04:47:35;20.10;66.10
37658;DHT22;23500;53.268;8.308;2023-05-13T04:50:02;20.20;66.00
37658;DHT22;23500;53.268;8.308;2023-05-13T04:52:28;20.30;64.70
37658;DHT22;23500;53.268;8.308;2023-05-13T04:54:53;20.50;64.50
37658;DHT22;23500;53.268;8.308;2023-05-13T04:57:19;20.60;65.10
37658;DHT22;23500;53.268;8.308;2023-05-13T04:59:44;20.70;65.00
37658;DHT22;23500;53.268;8.308;2023-05-13T05:02:10;20.70;65.40
37658;DHT22;23500;53.268;8.308;2023-05-13T05:04:36;20.80;65.50
37658;DHT22;23500;53.268;8.308;2023-05-13T05:07:01;20.90;65.60
37658;DHT22;23500;53.268;8.308;2023-05-13T05:09:27;21.00;65.40
37658;DHT22;23500;53.268;8.308;2023-05-13T05:11:54;21.00;64.90
37658;DHT22;23500;53.268;8.308;2023-05-13T05:14:20;21.10;64.60
37658;DHT22;23500;53.268;8.308;2023-05-13T05:16:45;21.20;64.30
37658;DHT22;23500;53.268;8.308;2023-05-13T05:19:11;21.40;64.30
37658;DHT22;23500;53.268;8.308;2023-05-13T05:21:37;21.50;64.00
37658;DHT22;23500;53.268;8.308;2023-05-13T05:24:03;21.50;63.70
37658;DHT22;23500;53.268;8.308;2023-05-13T05:26:29;21.70;63.70
37658;DHT22;23500;53.268;8.308;2023-05-13T05:28:55;21.70;63.40
37658;DHT22;23500;53.268;8.308;2023-05-13T05:31:20;21.80;63.20
37658;DHT22;23500;53.268;8.308;2023-05-13T05:33:46;21.90;63.20
37658;DHT22;23500;53.268;8.308;2023-05-13T05:36:12;21.90;62.70
37658;DHT22;23500;53.268;8.308;2023-05-13T05:38:37;22.00;62.50
37658;DHT22;23500;53.268;8.308;2023-05-13T05:41:03;22.10;62.40
37658;DHT22;23500;53.268;8.308;2023-05-13T05:43:29;22.10;62.20
37658;DHT22;23500;53.268;8.308;2023-05-13T05:45:55;22.10;62.10
37658;DHT22;23500;53.268;8.308;2023-05-13T05:48:20;22.10;62.20
37658;DHT22;23500;53.268;8.308;2023-05-13T05:50:46;22.20;62.10
37658;DHT22;23500;53.268;8.308;2023-05-13T05:53:13;22.20;62.00
37658;DHT22;23500;53.268;8.308;2023-05-13T05:55:38;22.20;61.90
37658;DHT22;23500;53.268;8.308;2023-05-13T05:58:04;22.30;61.80
37658;DHT22;23500;53.268;8.308;2023-05-13T06:00:30;22.30;61.90
37658;DHT22;23500;53.268;8.308;2023-05-13T06:02:57;22.30;62.10
37658;DHT22;23500;53.268;8.308;2023-05-13T06:05:23;22.30;62.00
37658;DHT22;23500;53.268;8.308;2023-05-13T06:07:48;22.30;62.00
37658;DHT22;23500;53.268;8.308;2023-05-13T06:10:14;22.30;62.10
37658;DHT22;23500;53.268;8.308;2023-05-13T06:12:40;22.30;62.20
37658;DHT22;23500;53.268;8.308;2023-05-13T06:15:07;22.30;62.10
37658;DHT22;23500;53.268;8.308;2023-05-13T06:17:35;22.40;62.20
37658;DHT22;23500;53.268;8.308;2023-05-13T06:20:01;22.40;62.10
37658;DHT22;23500;53.268;8.308;2023-05-13T06:22:27;22.40;62.20
37658;DHT22;23500;53.268;8.308;2023-05-13T06:24:53;22.40;62.20
37658;DHT22;23500;53.268;8.308;2023-05-13T06:27:18;22.40;62.20
37658;DHT22;23500;53.268;8.308;2023-05-13T06:29:44;22.40;62.30
37658;DHT22;23500;53.268;8.308;2023-05-13T06:32:09;22.40;62.30
37658;DHT22;23500;53.268;8.308;2023-05-13T06:34:35;22.40;62.30
37658;DHT22;23500;53.268;8.308;2023-05-13T06:37:02;22.40;62.20
37658;DHT22;23500;53.268;8.308;2023-05-13T06:39:28;22.50;62.30
37658;DHT22;23500;53.268;8.308;2023-05-13T06:41:53;22.50;62.30
37658;DHT22;23500;53.268;8.308;2023-05-13T06:44:19;22.50;62.30
37658;DHT22;23500;53.268;8.308;2023-05-13T06:46:45;22.50;62.30
37658;DHT22;23500;53.268;8.308;2023-05-13T06:49:11;22.50;62.30
37658;DHT22;23500;53.268;8.308;2023-05-13T06:51:36;22.50;62.30
37658;DHT22;23500;53.268;8.308;2023-05-13T06:54:02;22.50;62.40
37658;DHT22;23500;53.268;8.308;2023-05-13T06:56:28;22.50;62.40
37658;DHT22;23500;53.268;8.308;2023-05-13T06:58:54;22.50;62.50
37658;DHT22;23500;53.268;8.308;2023-05-13T07:01:20;22.50;62.50
37658;DHT22;23500;53.268;8.308;2023-05-13T07:03:45;22.50;62.50
37658;DHT22;23500;53.268;8.308;2023-05-13T07:06:11;22.50;62.60
37658;DHT22;23500;53.268;8.308;2023-05-13T07:08:37;22.50;62.60
37658;DHT22;23500;53.268;8.308;2023-05-13T07:11:03;22.50;62.60
37658;DHT22;23500;53.268;8.308;2023-05-13T07:13:29;22.50;62.70
37658;DHT22;23500;53.268;8.308;2023-05-13T07:15:57;22.40;62.70
37658;DHT22;23500;53.268;8.308;2023-05-13T07:18:23;22.40;62.80
37658;DHT22;23500;53.268;8.308;2023-05-13T07:20:49;22.40;62.80
37658;DHT22;23500;53.268;8.308;2023-05-13T07:23:14;22.40;62.80
37658;DHT22;23500;53.268;8.308;2023-05-13T07:25:40;22.40;62.90
37658;DHT22;23500;53.268;8.308;2023-05-13T07:28:06;22.40;62.90
37658;DHT22;23500;53.268;8.308;2023-05-13T07:30:31;22.40;63.00
37658;DHT22;23500;53.268;8.308;2023-05-13T07:32:57;22.40;63.00
37658;DHT22;23500;53.268;8.308;2023-05-13T07:35:22;22.30;63.00
37658;DHT22;23500;53.268;8.308;2023-05-13T07:37:48;22.30;63.00
37658;DHT22;23500;53.268;8.308;2023-05-13T07:40:14;22.30;63.10
37658;DHT22;23500;53.268;8.308;2023-05-13T07:42:40;22.30;63.10
37658;DHT22;23500;53.268;8.308;2023-05-13T07:45:07;22.30;63.20
37658;DHT22;23500;53.268;8.308;2023-05-13T07:47:32;22.30;63.20
37658;DHT22;23500;53.268;8.308;2023-05-13T07:49:59;22.30;63.20
37658;DHT22;23500;53.268;8.308;2023-05-13T07:52:25;22.30;63.30
37658;DHT22;23500;53.268;8.308;2023-05-13T07:54:50;22.30;63.20
37658;DHT22;23500;53.268;8.308;2023-05-13T07:57:16;22.20;63.20
37658;DHT22;23500;53.268;8.308;2023-05-13T07:59:42;22.20;63.20
37658;DHT22;23500;53.268;8.308;2023-05-13T08:02:07;22.20;63.20
37658;DHT22;23500;53.268;8.308;2023-05-13T08:04:34;22.20;63.30
37658;DHT22;23500;53.268;8.308;2023-05-13T08:07:02;22.20;63.40
37658;DHT22;23500;53.268;8.308;2023-05-13T08:09:28;22.10;63.40
37658;DHT22;23500;53.268;8.308;2023-05-13T08:11:54;22.10;63.40
37658;DHT22;23500;53.268;8.308;2023-05-13T08:14:20;22.10;63.40
37658;DHT22;23500;53.268;8.308;2023-05-13T08:16:46;22.10;63.60
37658;DHT22;23500;53.268;8.308;2023-05-13T08:19:14;22.00;63.60
37658;DHT22;23500;53.268;8.308;2023-05-13T08:21:40;22.00;63.70
37658;DHT22;23500;53.268;8.308;2023-05-13T08:24:06;22.00;63.80
37658;DHT22;23500;53.268;8.308;2023-05-13T08:26:32;21.90;63.90
37658;DHT22;23500;53.268;8.308;2023-05-13T08:28:58;21.90;63.90
37658;DHT22;23500;53.268;8.308;2023-05-13T08:31:24;21.90;64.00
37658;DHT22;23500;53.268;8.308;2023-05-13T08:33:53;21.90;64.10
37658;DHT22;23500;53.268;8.308;2023-05-13T08:36:19;21.80;64.20
37658;DHT22;23500;53.268;8.308;2023-05-13T08:38:46;21.80;64.20
37658;DHT22;23500;53.268;8.308;2023-05-13T08:41:12;21.80;64.30
37658;DHT22;23500;53.268;8.308;2023-05-13T08:43:38;21.70;64.50
37658;DHT22;23500;53.268;8.308;2023-05-13T08:46:08;21.70;64.60
37658;DHT22;23500;53.268;8.308;2023-05-13T08:48:35;21.60;64.70
37658;DHT22;23500;53.268;8.308;2023-05-13T08:51:01;21.60;64.90
37658;DHT22;23500;53.268;8.308;2023-05-13T08:53:27;21.50;65.00
37658;DHT22;23500;53.268;8.308;2023-05-13T08:55:54;21.50;65.20
37658;DHT22;23500;53.268;8.308;2023-05-13T08:58:20;21.50;65.30
37658;DHT22;23500;53.268;8.308;2023-05-13T09:00:47;21.40;65.40
37658;DHT22;23500;53.268;8.308;2023-05-13T09:03:14;21.40;65.50
37658;DHT22;23500;53.268;8.308;2023-05-13T09:05:42;21.30;65.60
37658;DHT22;23500;53.268;8.308;2023-05-13T09:08:08;21.30;65.60
37658;DHT22;23500;53.268;8.308;2023-05-13T09:10:38;21.30;65.70
37658;DHT22;23500;53.268;8.308;2023-05-13T09:13:04;21.30;65.70
37658;DHT22;23500;53.268;8.308;2023-05-13T09:15:31;21.20;65.70
37658;DHT22;23500;53.268;8.308;2023-05-13T09:18:04;21.20;65.90
37658;DHT22;23500;53.268;8.308;2023-05-13T09:20:30;21.20;65.90
37658;DHT22;23500;53.268;8.308;2023-05-13T09:25:22;21.20;66.10
37658;DHT22;23500;53.268;8.308;2023-05-13T09:27:53;21.10;66.00
37658;DHT22;23500;53.268;8.308;2023-05-13T09:30:22;21.10;66.00
37658;DHT22;23500;53.268;8.308;2023-05-13T09:35:37;21.10;66.10
37658;DHT22;23500;53.268;8.308;2023-05-13T09:38:13;21.00;66.10
37658;DHT22;23500;53.268;8.308;2023-05-13T09:40:39;21.10;66.30
37658;DHT22;23500;53.268;8.308;2023-05-13T09:43:05;21.00;66.20
37658;DHT22;23500;53.268;8.308;2023-05-13T09:45:35;21.00;66.20
37658;DHT22;23500;53.268;8.308;2023-05-13T09:48:01;21.00;66.20
37658;DHT22;23500;53.268;8.308;2023-05-13T09:50:27;21.00;66.20
37658;DHT22;23500;53.268;8.308;2023-05-13T09:52:53;21.00;66.20
37658;DHT22;23500;53.268;8.308;2023-05-13T09:55:18;21.00;66.30
37658;DHT22;23500;53.268;8.308;2023-05-13T09:57:45;21.00;66.30
37658;DHT22;23500;53.268;8.308;2023-05-13T10:00:11;21.00;66.30
37658;DHT22;23500;53.268;8.308;2023-05-13T10:02:37;21.00;66.30
37658;DHT22;23500;53.268;8.308;2023-05-13T10:05:04;21.00;66.30
37658;DHT22;23500;53.268;8.308;2023-05-13T10:07:33;21.00;66.30
37658;DHT22;23500;53.268;8.308;2023-05-13T10:10:02;21.00;66.30
37658;DHT22;23500;53.268;8.308;2023-05-13T10:12:30;20.90;66.30
37658;DHT22;23500;53.268;8.308;2023-05-13T10:14:57;20.90;66.30
37658;DHT22;23500;53.268;8.308;2023-05-13T10:17:24;20.90;66.30
37658;DHT22;23500;53.268;8.308;2023-05-13T10:19:51;20.90;66.30
37658;DHT22;23500;53.268;8.308;2023-05-13T10:22:26;20.90;66.50
37658;DHT22;23500;53.268;8.308;2023-05-13T10:24:56;20.90;66.30
37658;DHT22;23500;53.268;8.308;2023-05-13T10:27:26;20.90;66.30
37658;DHT22;23500;53.268;8.308;2023-05-13T10:29:54;20.90;66.30
37658;DHT22;23500;53.268;8.308;2023-05-13T10:32:25;20.90;66.30
37658;DHT22;23500;53.268;8.308;2023-05-13T10:35:03;20.90;66.30
37658;DHT22;23500;53.268;8.308;2023-05-13T10:43:19;20.90;66.30
37658;DHT22;23500;53.268;8.308;2023-05-13T10:45:57;20.90;66.20
37658;DHT22;23500;53.268;8.308;2023-05-13T10:48:22;20.90;66.30
37658;DHT22;23500;53.268;8.308;2023-05-13T10:50:54;20.90;66.20
37658;DHT22;23500;53.268;8.308;2023-05-13T10:53:23;20.90;66.20
37658;DHT22;23500;53.268;8.308;2023-05-13T10:55:57;20.90;66.20
37658;DHT22;23500;53.268;8.308;2023-05-13T10:58:31;20.90;66.30
37658;DHT22;23500;53.268;8.308;2023-05-13T11:01:13;20.90;66.20
37658;DHT22;23500;53.268;8.308;2023-05-13T11:03:40;20.90;66.20
37658;DHT22;23500;53.268;8.308;2023-05-13T11:06:15;20.90;66.20
37658;DHT22;23500;53.268;8.308;2023-05-13T11:08:43;20.90;66.20
37658;DHT22;23500;53.268;8.308;2023-05-13T11:13:53;20.90;66.10
37658;DHT22;23500;53.268;8.308;2023-05-13T11:16:20;20.90;66.10
37658;DHT22;23500;53.268;8.308;2023-05-13T11:18:46;20.90;66.10
37658;DHT22;23500;53.268;8.308;2023-05-13T11:21:12;20.90;66.10
37658;DHT22;23500;53.268;8.308;2023-05-13T11:26:16;20.90;66.00
37658;DHT22;23500;53.268;8.308;2023-05-13T11:29:04;20.90;66.10
37658;DHT22;23500;53.268;8.308;2023-05-13T11:31:47;20.90;66.00
37658;DHT22;23500;53.268;8.308;2023-05-13T11:34:20;20.90;66.00
37658;DHT22;23500;53.268;8.308;2023-05-13T11:39:29;20.90;65.90
37658;DHT22;23500;53.268;8.308;2023-05-13T11:41:55;20.90;65.90
37658;DHT22;23500;53.268;8.308;2023-05-13T11:44:26;20.90;65.90
37658;DHT22;23500;53.268;8.308;2023-05-13T11:46:57;20.90;65.90
37658;DHT22;23500;53.268;8.308;2023-05-13T11:51:55;20.90;66.00
37658;DHT22;23500;53.268;8.308;2023-05-13T11:54:22;20.90;65.90
37658;DHT22;23500;53.268;8.308;2023-05-13T11:56:48;20.90;65.80
37658;DHT22;23500;53.268;8.308;2023-05-13T11:59:14;21.00;65.80
37658;DHT22;23500;53.268;8.308;2023-05-13T12:01:39;20.90;65.70
37658;DHT22;23500;53.268;8.308;2023-05-13T12:04:05;21.00;65.80
37658;DHT22;23500;53.268;8.308;2023-05-13T12:06:32;20.90;65.80
37658;DHT22;23500;53.268;8.308;2023-05-13T12:09:04;20.90;65.80
37658;DHT22;23500;53.268;8.308;2023-05-13T12:11:30;21.00;65.80
37658;DHT22;23500;53.268;8.308;2023-05-13T12:13:56;21.00;65.70
37658;DHT22;23500;53.268;8.308;2023-05-13T12:16:23;21.00;65.60
37658;DHT22;23500;53.268;8.308;2023-05-13T12:18:59;21.00;65.50
37658;DHT22;23500;53.268;8.308;2023-05-13T12:21:28;21.00;65.50
37658;DHT22;23500;53.268;8.308;2023-05-13T12:23:53;21.00;66.20
37658;DHT22;23500;53.268;8.308;2023-05-13T12:26:19;21.00;65.50
37658;DHT22;23500;53.268;8.308;2023-05-13T12:28:46;21.00;65.50
37658;DHT22;23500;53.268;8.308;2023-05-13T12:31:15;21.00;65.50
37658;DHT22;23500;53.268;8.308;2023-05-13T12:33:42;21.00;65.60
37658;DHT22;23500;53.268;8.308;2023-05-13T12:36:18;21.00;65.60
37658;DHT22;23500;53.268;8.308;2023-05-13T12:39:00;21.00;65.60
37658;DHT22;23500;53.268;8.308;2023-05-13T12:41:31;21.00;65.50
37658;DHT22;23500;53.268;8.308;2023-05-13T12:46:30;21.00;65.30
37658;DHT22;23500;53.268;8.308;2023-05-13T12:48:58;21.10;65.20
37658;DHT22;23500;53.268;8.308;2023-05-13T12:51:24;21.10;65.10
37658;DHT22;23500;53.268;8.308;2023-05-13T12:53:50;21.10;65.00
37658;DHT22;23500;53.268;8.308;2023-05-13T12:56:19;21.10;65.10
37658;DHT22;23500;53.268;8.308;2023-05-13T12:58:46;21.10;65.20
37658;DHT22;23500;53.268;8.308;2023-05-13T13:01:12;21.10;65.20
37658;DHT22;23500;53.268;8.308;2023-05-13T13:03:37;21.10;65.20
37658;DHT22;23500;53.268;8.308;2023-05-13T13:06:03;21.00;65.10
37658;DHT22;23500;53.268;8.308;2023-05-13T13:08:29;21.10;65.20
37658;DHT22;23500;53.268;8.308;2023-05-13T13:10:55;21.10;65.20
37658;DHT22;23500;53.268;8.308;2023-05-13T13:13:21;21.10;65.10
37658;DHT22;23500;53.268;8.308;2023-05-13T13:15:46;21.10;65.10
37658;DHT22;23500;53.268;8.308;2023-05-13T13:18:12;21.00;65.20
37658;DHT22;23500;53.268;8.308;2023-05-13T13:20:38;21.10;65.20
37658;DHT22;23500;53.268;8.308;2023-05-13T13:23:03;21.10;65.30
37658;DHT22;23500;53.268;8.308;2023-05-13T13:25:29;21.10;65.20
37658;DHT22;23500;53.268;8.308;2023-05-13T13:27:55;21.10;65.10
37658;DHT22;23500;53.268;8.308;2023-05-13T13:30:20;21.10;65.10
37658;DHT22;23500;53.268;8.308;2023-05-13T13:32:46;21.10;65.00
37658;DHT22;23500;53.268;8.308;2023-05-13T13:35:12;21.10;65.00
37658;DHT22;23500;53.268;8.308;2023-05-13T13:37:38;21.10;65.10
37658;DHT22;23500;53.268;8.308;2023-05-13T13:40:04;21.00;65.10
37658;DHT22;23500;53.268;8.308;2023-05-13T13:42:29;21.10;65.20
37658;DHT22;23500;53.268;8.308;2023-05-13T13:44:55;21.10;65.20
37658;DHT22;23500;53.268;8.308;2023-05-13T13:47:21;21.10;65.20
37658;DHT22;23500;53.268;8.308;2023-05-13T13:49:47;21.00;65.10
37658;DHT22;23500;53.268;8.308;2023-05-13T13:52:13;21.10;65.20
37658;DHT22;23500;53.268;8.308;2023-05-13T13:54:38;21.10;65.20
37658;DHT22;23500;53.268;8.308;2023-05-13T13:57:04;21.00;65.20
37658;DHT22;23500;53.268;8.308;2023-05-13T13:59:30;21.00;65.30
37658;DHT22;23500;53.268;8.308;2023-05-13T14:01:55;21.10;65.30
37658;DHT22;23500;53.268;8.308;2023-05-13T14:04:21;21.10;65.30
37658;DHT22;23500;53.268;8.308;2023-05-13T14:06:50;21.10;65.20
37658;DHT22;23500;53.268;8.308;2023-05-13T14:09:16;21.00;65.10
37658;DHT22;23500;53.268;8.308;2023-05-13T14:11:42;21.10;65.10
37658;DHT22;23500;53.268;8.308;2023-05-13T14:14:07;21.10;65.10
37658;DHT22;23500;53.268;8.308;2023-05-13T14:16:34;21.10;65.00
37658;DHT22;23500;53.268;8.308;2023-05-13T14:19:00;21.10;65.60
37658;DHT22;23500;53.268;8.308;2023-05-13T14:21:25;21.10;64.90
37658;DHT22;23500;53.268;8.308;2023-05-13T14:23:51;21.10;64.90
37658;DHT22;23500;53.268;8.308;2023-05-13T14:26:17;21.10;65.00
37658;DHT22;23500;53.268;8.308;2023-05-13T14:28:43;21.10;65.20
37658;DHT22;23500;53.268;8.308;2023-05-13T14:31:10;21.10;65.20
37658;DHT22;23500;53.268;8.308;2023-05-13T14:33:36;21.10;65.20
37658;DHT22;23500;53.268;8.308;2023-05-13T14:36:01;21.10;65.20
37658;DHT22;23500;53.268;8.308;2023-05-13T14:38:27;21.10;65.20
37658;DHT22;23500;53.268;8.308;2023-05-13T14:40:53;21.00;65.20
37658;DHT22;23500;53.268;8.308;2023-05-13T14:43:25;21.10;65.20
37658;DHT22;23500;53.268;8.308;2023-05-13T14:45:50;21.10;65.20
37658;DHT22;23500;53.268;8.308;2023-05-13T14:48:17;21.00;65.20
37658;DHT22;23500;53.268;8.308;2023-05-13T14:50:44;21.00;65.20
37658;DHT22;23500;53.268;8.308;2023-05-13T14:53:09;21.10;65.30
37658;DHT22;23500;53.268;8.308;2023-05-13T14:55:35;21.00;65.30
37658;DHT22;23500;53.268;8.308;2023-05-13T14:58:01;21.00;65.40
37658;DHT22;23500;53.268;8.308;2023-05-13T15:00:28;21.00;65.50
37658;DHT22;23500;53.268;8.308;2023-05-13T15:02:54;21.00;65.50
37658;DHT22;23500;53.268;8.308;2023-05-13T15:05:20;21.00;65.50
37658;DHT22;23500;53.268;8.308;2023-05-13T15:07:46;21.00;65.50
37658;DHT22;23500;53.268;8.308;2023-05-13T15:10:11;21.00;65.50
37658;DHT22;23500;53.268;8.308;2023-05-13T15:12:37;21.00;65.50
37658;DHT22;23500;53.268;8.308;2023-05-13T15:15:03;21.00;65.50
37658;DHT22;23500;53.268;8.308;2023-05-13T15:17:28;21.00;65.50
37658;DHT22;23500;53.268;8.308;2023-05-13T15:19:54;21.00;65.50
37658;DHT22;23500;53.268;8.308;2023-05-13T15:22:20;21.00;65.50
37658;DHT22;23500;53.268;8.308;2023-05-13T15:24:46;21.00;65.50
37658;DHT22;23500;53.268;8.308;2023-05-13T15:27:11;21.00;65.50
37658;DHT22;23500;53.268;8.308;2023-05-13T15:29:38;21.00;65.50
37658;DHT22;23500;53.268;8.308;2023-05-13T15:32:04;21.00;65.30
37658;DHT22;23500;53.268;8.308;2023-05-13T15:34:30;21.00;65.30
37658;DHT22;23500;53.268;8.308;2023-05-13T15:36:56;21.10;65.40
37658;DHT22;23500;53.268;8.308;2023-05-13T15:39:21;21.10;65.40
37658;DHT22;23500;53.268;8.308;2023-05-13T15:41:47;21.10;65.40
37658;DHT22;23500;53.268;8.308;2023-05-13T15:44:13;21.10;65.40
37658;DHT22;23500;53.268;8.308;2023-05-13T15:46:39;21.10;66.10
37658;DHT22;23500;53.268;8.308;2023-05-13T15:49:05;21.10;65.40
37658;DHT22;23500;53.268;8.308;2023-05-13T15:51:31;21.00;65.30
37658;DHT22;23500;53.268;8.308;2023-05-13T15:53:57;21.00;65.30
37658;DHT22;23500;53.268;8.308;2023-05-13T15:56:24;21.00;65.30